sensor_id;sensor_type;location;lat;lon;timestamp;P1;durP1;ratioP1;P2;durP2;ratioP2
58597;SDS011;64549;46.910;16.844;2022-10-30T00:00:19;3.42;;;2.95;;
58597;SDS011;64549;46.910;16.844;2022-10-30T00:05:21;2.15;;;1.80;;
58597;SDS011;64549;46.910;16.844;2022-10-30T00:10:21;2.60;;;2.30;;
58597;SDS011;64549;46.910;16.844;2022-10-30T00:15:23;3.35;;;2.25;;
58597;SDS011;64549;46.910;16.844;2022-10-30T00:20:23;2.60;;;2.20;;
58597;SDS011;64549;46.910;16.844;2022-10-30T00:25:24;1.90;;;1.80;;
58597;SDS011;64549;46.910;16.844;2022-10-30T00:30:24;3.42;;;2.15;;
58597;SDS011;64549;46.910;16.844;2022-10-30T00:35:25;1.70;;;1.58;;
58597;SDS011;64549;46.910;16.844;2022-10-30T00:40:25;1.63;;;1.52;;
58597;SDS011;64549;46.910;16.844;2022-10-30T00:45:26;3.13;;;2.17;;
58597;SDS011;64549;46.910;16.844;2022-10-30T00:50:30;1.95;;;1.73;;
58597;SDS011;64549;46.910;16.844;2022-10-30T00:55:48;2.05;;;1.85;;
58597;SDS011;64549;46.910;16.844;2022-10-30T01:00:52;2.00;;;1.83;;
58597;SDS011;64549;46.910;16.844;2022-10-30T01:05:57;2.03;;;1.88;;
58597;SDS011;64549;46.910;16.844;2022-10-30T01:11:02;3.08;;;2.28;;
58597;SDS011;64549;46.910;16.844;2022-10-30T01:16:07;2.55;;;2.35;;
58597;SDS011;64549;46.910;16.844;2022-10-30T01:27:06;2.13;;;2.03;;
58597;SDS011;64549;46.910;16.844;2022-10-30T01:32:14;3.30;;;1.38;;
58597;SDS011;64549;46.910;16.844;2022-10-30T01:37:35;1.48;;;1.38;;
58597;SDS011;64549;46.910;16.844;2022-10-30T01:42:54;1.83;;;1.50;;
58597;SDS011;64549;46.910;16.844;2022-10-30T01:58:31;1.20;;;1.20;;
58597;SDS011;64549;46.910;16.844;2022-10-30T02:03:42;2.05;;;1.77;;
58597;SDS011;64549;46.910;16.844;2022-10-30T02:08:43;2.25;;;2.05;;
58597;SDS011;64549;46.910;16.844;2022-10-30T02:13:44;1.80;;;1.70;;
58597;SDS011;64549;46.910;16.844;2022-10-30T02:18:44;3.00;;;1.88;;
58597;SDS011;64549;46.910;16.844;2022-10-30T02:23:45;2.15;;;1.60;;
58597;SDS011;64549;46.910;16.844;2022-10-30T02:28:45;1.55;;;1.45;;
58597;SDS011;64549;46.910;16.844;2022-10-30T02:33:46;1.60;;;1.50;;
58597;SDS011;64549;46.910;16.844;2022-10-30T02:38:47;1.77;;;1.13;;
58597;SDS011;64549;46.910;16.844;2022-10-30T02:43:47;2.05;;;1.90;;
58597;SDS011;64549;46.910;16.844;2022-10-30T02:48:51;0.93;;;0.93;;
58597;SDS011;64549;46.910;16.844;2022-10-30T02:53:51;1.83;;;1.73;;
58597;SDS011;64549;46.910;16.844;2022-10-30T02:58:51;1.13;;;1.10;;
58597;SDS011;64549;46.910;16.844;2022-10-30T03:03:53;1.38;;;1.27;;
58597;SDS011;64549;46.910;16.844;2022-10-30T03:08:56;1.48;;;1.38;;
58597;SDS011;64549;46.910;16.844;2022-10-30T03:13:57;1.92;;;1.20;;
58597;SDS011;64549;46.910;16.844;2022-10-30T03:18:57;2.20;;;1.30;;
58597;SDS011;64549;46.910;16.844;2022-10-30T03:23:58;0.88;;;0.88;;
58597;SDS011;64549;46.910;16.844;2022-10-30T03:28:59;0.88;;;0.80;;
58597;SDS011;64549;46.910;16.844;2022-10-30T03:33:59;1.83;;;1.30;;
58597;SDS011;64549;46.910;16.844;2022-10-30T03:39:00;2.40;;;1.60;;
58597;SDS011;64549;46.910;16.844;2022-10-30T03:44:00;0.93;;;0.80;;
58597;SDS011;64549;46.910;16.844;2022-10-30T03:49:01;1.20;;;1.10;;
58597;SDS011;64549;46.910;16.844;2022-10-30T03:54:01;1.48;;;1.38;;
58597;SDS011;64549;46.910;16.844;2022-10-30T03:59:02;1.13;;;1.02;;
58597;SDS011;64549;46.910;16.844;2022-10-30T04:04:02;1.55;;;0.95;;
58597;SDS011;64549;46.910;16.844;2022-10-30T04:09:03;1.02;;;1.02;;
58597;SDS011;64549;46.910;16.844;2022-10-30T04:14:03;1.00;;;1.00;;
58597;SDS011;64549;46.910;16.844;2022-10-30T04:19:04;2.63;;;1.25;;
58597;SDS011;64549;46.910;16.844;2022-10-30T04:24:04;0.70;;;0.70;;
58597;SDS011;64549;46.910;16.844;2022-10-30T04:29:05;1.08;;;0.65;;
58597;SDS011;64549;46.910;16.844;2022-10-30T04:34:05;0.50;;;0.50;;
58597;SDS011;64549;46.910;16.844;2022-10-30T04:39:06;0.55;;;0.52;;
58597;SDS011;64549;46.910;16.844;2022-10-30T04:44:06;0.52;;;0.52;;
58597;SDS011;64549;46.910;16.844;2022-10-30T04:49:07;0.70;;;0.70;;
58597;SDS011;64549;46.910;16.844;2022-10-30T04:54:07;0.68;;;0.68;;
58597;SDS011;64549;46.910;16.844;2022-10-30T04:59:08;0.90;;;0.90;;
58597;SDS011;64549;46.910;16.844;2022-10-30T05:04:08;0.82;;;0.80;;
58597;SDS011;64549;46.910;16.844;2022-10-30T05:09:08;0.65;;;0.57;;
58597;SDS011;64549;46.910;16.844;2022-10-30T05:14:09;0.43;;;0.43;;
58597;SDS011;64549;46.910;16.844;2022-10-30T05:19:09;0.55;;;0.55;;
58597;SDS011;64549;46.910;16.844;2022-10-30T05:24:12;0.52;;;0.52;;
58597;SDS011;64549;46.910;16.844;2022-10-30T05:29:13;0.60;;;0.60;;
58597;SDS011;64549;46.910;16.844;2022-10-30T05:34:13;0.63;;;0.45;;
58597;SDS011;64549;46.910;16.844;2022-10-30T05:39:14;1.15;;;1.05;;
58597;SDS011;64549;46.910;16.844;2022-10-30T05:44:15;0.60;;;0.60;;
58597;SDS011;64549;46.910;16.844;2022-10-30T05:49:15;0.85;;;0.85;;
58597;SDS011;64549;46.910;16.844;2022-10-30T05:54:17;0.73;;;0.70;;
58597;SDS011;64549;46.910;16.844;2022-10-30T05:59:17;0.63;;;0.63;;
58597;SDS011;64549;46.910;16.844;2022-10-30T06:04:18;1.08;;;0.98;;
58597;SDS011;64549;46.910;16.844;2022-10-30T06:09:18;1.30;;;1.17;;
58597;SDS011;64549;46.910;16.844;2022-10-30T06:14:21;0.65;;;0.65;;
58597;SDS011;64549;46.910;16.844;2022-10-30T06:19:22;1.38;;;1.02;;
58597;SDS011;64549;46.910;16.844;2022-10-30T06:24:22;0.90;;;0.90;;
58597;SDS011;64549;46.910;16.844;2022-10-30T06:29:23;1.50;;;1.05;;
58597;SDS011;64549;46.910;16.844;2022-10-30T06:34:23;1.38;;;1.10;;
58597;SDS011;64549;46.910;16.844;2022-10-30T06:39:24;1.42;;;1.08;;
58597;SDS011;64549;46.910;16.844;2022-10-30T06:44:25;0.52;;;0.52;;
58597;SDS011;64549;46.910;16.844;2022-10-30T06:49:25;0.60;;;0.60;;
58597;SDS011;64549;46.910;16.844;2022-10-30T06:54:26;1.80;;;1.50;;
58597;SDS011;64549;46.910;16.844;2022-10-30T06:59:26;1.33;;;1.23;;
58597;SDS011;64549;46.910;16.844;2022-10-30T07:04:27;0.98;;;0.98;;
58597;SDS011;64549;46.910;16.844;2022-10-30T07:09:27;0.70;;;0.70;;
58597;SDS011;64549;46.910;16.844;2022-10-30T07:14:28;0.63;;;0.63;;
58597;SDS011;64549;46.910;16.844;2022-10-30T07:19:28;1.05;;;0.98;;
58597;SDS011;64549;46.910;16.844;2022-10-30T07:24:29;0.85;;;0.85;;
58597;SDS011;64549;46.910;16.844;2022-10-30T07:29:29;1.75;;;0.98;;
58597;SDS011;64549;46.910;16.844;2022-10-30T07:34:30;1.60;;;1.10;;
58597;SDS011;64549;46.910;16.844;2022-10-30T07:39:30;1.13;;;1.05;;
58597;SDS011;64549;46.910;16.844;2022-10-30T07:44:31;1.33;;;0.85;;
58597;SDS011;64549;46.910;16.844;2022-10-30T07:49:31;2.50;;;1.30;;
58597;SDS011;64549;46.910;16.844;2022-10-30T07:54:32;1.20;;;1.05;;
58597;SDS011;64549;46.910;16.844;2022-10-30T07:59:32;1.00;;;1.00;;
58597;SDS011;64549;46.910;16.844;2022-10-30T08:04:33;1.35;;;1.25;;
58597;SDS011;64549;46.910;16.844;2022-10-30T08:09:33;0.80;;;0.80;;
58597;SDS011;64549;46.910;16.844;2022-10-30T08:14:34;1.13;;;0.95;;
58597;SDS011;64549;46.910;16.844;2022-10-30T08:19:34;1.30;;;1.13;;
58597;SDS011;64549;46.910;16.844;2022-10-30T08:24:35;2.60;;;1.08;;
58597;SDS011;64549;46.910;16.844;2022-10-30T08:29:35;1.48;;;1.38;;
58597;SDS011;64549;46.910;16.844;2022-10-30T08:34:35;1.95;;;1.15;;
58597;SDS011;64549;46.910;16.844;2022-10-30T08:39:36;0.80;;;0.80;;
58597;SDS011;64549;46.910;16.844;2022-10-30T08:44:37;0.88;;;0.88;;
58597;SDS011;64549;46.910;16.844;2022-10-30T08:49:38;1.05;;;1.02;;
58597;SDS011;64549;46.910;16.844;2022-10-30T08:54:38;0.85;;;0.85;;
58597;SDS011;64549;46.910;16.844;2022-10-30T08:59:39;1.17;;;1.08;;
58597;SDS011;64549;46.910;16.844;2022-10-30T09:04:39;1.25;;;0.75;;
58597;SDS011;64549;46.910;16.844;2022-10-30T09:09:40;1.13;;;0.75;;
58597;SDS011;64549;46.910;16.844;2022-10-30T09:14:40;0.90;;;0.85;;
58597;SDS011;64549;46.910;16.844;2022-10-30T09:19:40;0.70;;;0.70;;
58597;SDS011;64549;46.910;16.844;2022-10-30T09:24:41;0.60;;;0.60;;
58597;SDS011;64549;46.910;16.844;2022-10-30T09:29:41;0.93;;;0.70;;
58597;SDS011;64549;46.910;16.844;2022-10-30T09:34:42;1.13;;;0.50;;
58597;SDS011;64549;46.910;16.844;2022-10-30T09:39:43;0.95;;;0.95;;
58597;SDS011;64549;46.910;16.844;2022-10-30T10:00:39;1.48;;;1.30;;
58597;SDS011;64549;46.910;16.844;2022-10-30T10:05:49;1.58;;;1.20;;
58597;SDS011;64549;46.910;16.844;2022-10-30T10:10:54;4.00;;;1.92;;
58597;SDS011;64549;46.910;16.844;2022-10-30T10:21:24;1.17;;;1.17;;
58597;SDS011;64549;46.910;16.844;2022-10-30T10:37:12;1.33;;;1.23;;
58597;SDS011;64549;46.910;16.844;2022-10-30T10:47:48;3.50;;;1.95;;
58597;SDS011;64549;46.910;16.844;2022-10-30T11:08:59;0.63;;;0.57;;
58597;SDS011;64549;46.910;16.844;2022-10-30T11:14:14;1.33;;;1.23;;
58597;SDS011;64549;46.910;16.844;2022-10-30T11:19:17;0.95;;;0.95;;
58597;SDS011;64549;46.910;16.844;2022-10-30T11:29:29;1.50;;;1.40;;
58597;SDS011;64549;46.910;16.844;2022-10-30T11:34:31;1.90;;;1.42;;
58597;SDS011;64549;46.910;16.844;2022-10-30T11:39:35;2.05;;;1.63;;
58597;SDS011;64549;46.910;16.844;2022-10-30T11:44:37;1.55;;;1.35;;
58597;SDS011;64549;46.910;16.844;2022-10-30T11:49:41;2.40;;;1.98;;
58597;SDS011;64549;46.910;16.844;2022-10-30T11:54:52;1.25;;;1.25;;
58597;SDS011;64549;46.910;16.844;2022-10-30T12:00:14;1.05;;;0.93;;
58597;SDS011;64549;46.910;16.844;2022-10-30T12:05:35;1.35;;;1.33;;
58597;SDS011;64549;46.910;16.844;2022-10-30T12:10:44;1.17;;;0.95;;
58597;SDS011;64549;46.910;16.844;2022-10-30T12:21:35;1.00;;;0.90;;
58597;SDS011;64549;46.910;16.844;2022-10-30T12:26:38;0.77;;;0.77;;
58597;SDS011;64549;46.910;16.844;2022-10-30T12:31:41;2.38;;;1.17;;
58597;SDS011;64549;46.910;16.844;2022-10-30T12:36:51;1.00;;;0.95;;
58597;SDS011;64549;46.910;16.844;2022-10-30T12:52:23;1.20;;;1.13;;
58597;SDS011;64549;46.910;16.844;2022-10-30T12:57:32;1.13;;;0.93;;
58597;SDS011;64549;46.910;16.844;2022-10-30T13:02:49;1.23;;;1.20;;
58597;SDS011;64549;46.910;16.844;2022-10-30T13:08:01;0.85;;;0.80;;
58597;SDS011;64549;46.910;16.844;2022-10-30T13:13:22;2.05;;;1.40;;
58597;SDS011;64549;46.910;16.844;2022-10-30T13:18:26;0.98;;;0.82;;
58597;SDS011;64549;46.910;16.844;2022-10-30T13:23:35;0.93;;;0.93;;
58597;SDS011;64549;46.910;16.844;2022-10-30T13:28:42;1.13;;;1.13;;
58597;SDS011;64549;46.910;16.844;2022-10-30T13:55:16;1.73;;;1.63;;
58597;SDS011;64549;46.910;16.844;2022-10-30T14:05:44;1.40;;;1.30;;
58597;SDS011;64549;46.910;16.844;2022-10-30T14:11:03;1.30;;;0.60;;
58597;SDS011;64549;46.910;16.844;2022-10-30T14:16:06;2.90;;;2.35;;
58597;SDS011;64549;46.910;16.844;2022-10-30T14:21:49;1.42;;;1.33;;
58597;SDS011;64549;46.910;16.844;2022-10-30T14:26:30;0.47;;;0.47;;
58597;SDS011;64549;46.910;16.844;2022-10-30T14:31:32;1.45;;;0.98;;
58597;SDS011;64549;46.910;16.844;2022-10-30T14:46:43;1.85;;;1.35;;
58597;SDS011;64549;46.910;16.844;2022-10-30T14:57:43;1.53;;;1.43;;
58597;SDS011;64549;46.910;16.844;2022-10-30T15:08:24;4.07;;;1.60;;
58597;SDS011;64549;46.910;16.844;2022-10-30T15:13:55;5.17;;;2.13;;
58597;SDS011;64549;46.910;16.844;2022-10-30T15:18:59;4.75;;;2.70;;
58597;SDS011;64549;46.910;16.844;2022-10-30T15:24:07;3.22;;;2.60;;
58597;SDS011;64549;46.910;16.844;2022-10-30T15:29:29;1.73;;;1.63;;
58597;SDS011;64549;46.910;16.844;2022-10-30T15:34:32;1.30;;;1.20;;
58597;SDS011;64549;46.910;16.844;2022-10-30T15:39:33;2.38;;;2.15;;
58597;SDS011;64549;46.910;16.844;2022-10-30T15:44:34;1.70;;;1.60;;
58597;SDS011;64549;46.910;16.844;2022-10-30T15:49:39;1.67;;;1.38;;
58597;SDS011;64549;46.910;16.844;2022-10-30T15:54:46;2.17;;;1.85;;
58597;SDS011;64549;46.910;16.844;2022-10-30T15:59:52;1.80;;;1.70;;
58597;SDS011;64549;46.910;16.844;2022-10-30T16:04:56;1.92;;;1.83;;
58597;SDS011;64549;46.910;16.844;2022-10-30T16:09:57;3.28;;;1.98;;
58597;SDS011;64549;46.910;16.844;2022-10-30T16:15:06;1.33;;;1.23;;
58597;SDS011;64549;46.910;16.844;2022-10-30T16:20:16;3.42;;;2.03;;
58597;SDS011;64549;46.910;16.844;2022-10-30T16:25:18;2.22;;;1.85;;
58597;SDS011;64549;46.910;16.844;2022-10-30T16:30:20;2.38;;;2.17;;
58597;SDS011;64549;46.910;16.844;2022-10-30T16:35:28;1.48;;;1.38;;
58597;SDS011;64549;46.910;16.844;2022-10-30T16:40:29;2.33;;;2.05;;
58597;SDS011;64549;46.910;16.844;2022-10-30T16:50:33;3.35;;;2.95;;
58597;SDS011;64549;46.910;16.844;2022-10-30T16:55:35;2.55;;;2.35;;
58597;SDS011;64549;46.910;16.844;2022-10-30T17:00:37;2.42;;;2.22;;
58597;SDS011;64549;46.910;16.844;2022-10-30T17:05:55;4.63;;;3.10;;
58597;SDS011;64549;46.910;16.844;2022-10-30T17:11:03;1.80;;;1.67;;
58597;SDS011;64549;46.910;16.844;2022-10-30T17:21:16;1.63;;;1.20;;
58597;SDS011;64549;46.910;16.844;2022-10-30T17:26:20;2.70;;;1.88;;
58597;SDS011;64549;46.910;16.844;2022-10-30T17:31:26;1.63;;;1.13;;
58597;SDS011;64549;46.910;16.844;2022-10-30T17:36:30;2.33;;;2.10;;
58597;SDS011;64549;46.910;16.844;2022-10-30T17:41:30;1.50;;;1.40;;
58597;SDS011;64549;46.910;16.844;2022-10-30T17:46:31;3.30;;;1.83;;
58597;SDS011;64549;46.910;16.844;2022-10-30T17:51:32;1.60;;;1.50;;
58597;SDS011;64549;46.910;16.844;2022-10-30T17:56:32;3.38;;;2.33;;
58597;SDS011;64549;46.910;16.844;2022-10-30T18:01:33;2.63;;;1.27;;
58597;SDS011;64549;46.910;16.844;2022-10-30T18:06:34;3.17;;;2.88;;
58597;SDS011;64549;46.910;16.844;2022-10-30T18:11:34;3.17;;;2.90;;
58597;SDS011;64549;46.910;16.844;2022-10-30T18:16:35;1.83;;;1.73;;
58597;SDS011;64549;46.910;16.844;2022-10-30T18:21:37;1.20;;;1.20;;
58597;SDS011;64549;46.910;16.844;2022-10-30T18:26:37;1.20;;;1.20;;
58597;SDS011;64549;46.910;16.844;2022-10-30T18:31:38;0.85;;;0.85;;
58597;SDS011;64549;46.910;16.844;2022-10-30T18:36:39;1.98;;;1.17;;
58597;SDS011;64549;46.910;16.844;2022-10-30T18:41:40;1.92;;;1.70;;
58597;SDS011;64549;46.910;16.844;2022-10-30T18:46:45;2.35;;;1.40;;
58597;SDS011;64549;46.910;16.844;2022-10-30T18:51:45;1.83;;;1.70;;
58597;SDS011;64549;46.910;16.844;2022-10-30T18:56:45;1.55;;;1.45;;
58597;SDS011;64549;46.910;16.844;2022-10-30T19:01:46;1.20;;;1.05;;
58597;SDS011;64549;46.910;16.844;2022-10-30T19:06:46;1.95;;;1.50;;
58597;SDS011;64549;46.910;16.844;2022-10-30T19:11:47;2.20;;;1.35;;
58597;SDS011;64549;46.910;16.844;2022-10-30T19:16:50;0.82;;;0.82;;
58597;SDS011;64549;46.910;16.844;2022-10-30T19:21:50;0.63;;;0.57;;
58597;SDS011;64549;46.910;16.844;2022-10-30T19:26:51;1.83;;;1.73;;
58597;SDS011;64549;46.910;16.844;2022-10-30T19:31:52;0.60;;;0.57;;
58597;SDS011;64549;46.910;16.844;2022-10-30T19:36:52;1.95;;;1.15;;
58597;SDS011;64549;46.910;16.844;2022-10-30T19:41:53;1.30;;;1.10;;
58597;SDS011;64549;46.910;16.844;2022-10-30T19:46:53;0.63;;;0.63;;
58597;SDS011;64549;46.910;16.844;2022-10-30T19:51:53;3.65;;;0.82;;
58597;SDS011;64549;46.910;16.844;2022-10-30T19:56:54;1.50;;;1.40;;
58597;SDS011;64549;46.910;16.844;2022-10-30T20:01:54;0.52;;;0.52;;
58597;SDS011;64549;46.910;16.844;2022-10-30T20:06:55;1.35;;;1.25;;
58597;SDS011;64549;46.910;16.844;2022-10-30T20:11:55;3.00;;;1.17;;
58597;SDS011;64549;46.910;16.844;2022-10-30T20:16:56;2.65;;;1.55;;
58597;SDS011;64549;46.910;16.844;2022-10-30T20:21:56;1.08;;;0.93;;
58597;SDS011;64549;46.910;16.844;2022-10-30T20:26:56;1.10;;;1.10;;
58597;SDS011;64549;46.910;16.844;2022-10-30T20:31:57;0.68;;;0.68;;
58597;SDS011;64549;46.910;16.844;2022-10-30T20:36:57;1.60;;;0.82;;
58597;SDS011;64549;46.910;16.844;2022-10-30T20:41:58;2.40;;;1.08;;
58597;SDS011;64549;46.910;16.844;2022-10-30T20:46:59;0.50;;;0.50;;
58597;SDS011;64549;46.910;16.844;2022-10-30T20:51:59;0.55;;;0.55;;
58597;SDS011;64549;46.910;16.844;2022-10-30T20:57:00;1.50;;;1.10;;
58597;SDS011;64549;46.910;16.844;2022-10-30T21:02:00;1.98;;;1.58;;
58597;SDS011;64549;46.910;16.844;2022-10-30T21:07:01;2.47;;;1.40;;
58597;SDS011;64549;46.910;16.844;2022-10-30T21:12:01;0.88;;;0.82;;
58597;SDS011;64549;46.910;16.844;2022-10-30T21:17:02;1.23;;;1.13;;
58597;SDS011;64549;46.910;16.844;2022-10-30T21:22:02;0.50;;;0.50;;
58597;SDS011;64549;46.910;16.844;2022-10-30T21:27:03;1.17;;;1.08;;
58597;SDS011;64549;46.910;16.844;2022-10-30T21:32:04;1.00;;;0.65;;
58597;SDS011;64549;46.910;16.844;2022-10-30T21:37:05;1.15;;;1.10;;
58597;SDS011;64549;46.910;16.844;2022-10-30T21:42:05;1.10;;;1.00;;
58597;SDS011;64549;46.910;16.844;2022-10-30T21:47:06;1.70;;;0.98;;
58597;SDS011;64549;46.910;16.844;2022-10-30T21:52:09;0.70;;;0.70;;
58597;SDS011;64549;46.910;16.844;2022-10-30T21:57:10;0.77;;;0.70;;
58597;SDS011;64549;46.910;16.844;2022-10-30T22:02:13;1.02;;;1.02;;
58597;SDS011;64549;46.910;16.844;2022-10-30T22:07:16;0.52;;;0.52;;
58597;SDS011;64549;46.910;16.844;2022-10-30T22:12:17;0.70;;;0.70;;
58597;SDS011;64549;46.910;16.844;2022-10-30T22:17:17;1.05;;;0.75;;
58597;SDS011;64549;46.910;16.844;2022-10-30T22:22:18;1.02;;;0.98;;
58597;SDS011;64549;46.910;16.844;2022-10-30T22:27:18;1.67;;;1.20;;
58597;SDS011;64549;46.910;16.844;2022-10-30T22:32:19;0.85;;;0.85;;
58597;SDS011;64549;46.910;16.844;2022-10-30T22:37:19;0.70;;;0.70;;
58597;SDS011;64549;46.910;16.844;2022-10-30T22:42:20;0.73;;;0.73;;
58597;SDS011;64549;46.910;16.844;2022-10-30T22:47:20;0.65;;;0.65;;
58597;SDS011;64549;46.910;16.844;2022-10-30T22:52:20;0.57;;;0.57;;
58597;SDS011;64549;46.910;16.844;2022-10-30T22:57:21;1.05;;;1.02;;
58597;SDS011;64549;46.910;16.844;2022-10-30T23:02:21;0.70;;;0.70;;
58597;SDS011;64549;46.910;16.844;2022-10-30T23:07:22;1.08;;;0.80;;
58597;SDS011;64549;46.910;16.844;2022-10-30T23:12:22;0.57;;;0.57;;
58597;SDS011;64549;46.910;16.844;2022-10-30T23:17:23;0.60;;;0.60;;
58597;SDS011;64549;46.910;16.844;2022-10-30T23:22:23;0.82;;;0.82;;
58597;SDS011;64549;46.910;16.844;2022-10-30T23:27:24;1.58;;;0.65;;
58597;SDS011;64549;46.910;16.844;2022-10-30T23:32:24;0.73;;;0.73;;
58597;SDS011;64549;46.910;16.844;2022-10-30T23:37:24;0.57;;;0.57;;
58597;SDS011;64549;46.910;16.844;2022-10-30T23:42:25;0.50;;;0.50;;
58597;SDS011;64549;46.910;16.844;2022-10-30T23:47:25;0.65;;;0.65;;
58597;SDS011;64549;46.910;16.844;2022-10-30T23:52:26;0.52;;;0.50;;
58597;SDS011;64549;46.910;16.844;2022-10-30T23:57:26;1.48;;;0.77;;
